createdAt,value
2022-09-03T00:15:05.304Z,74.91
2022-09-03T00:22:07.355Z,75.08
2022-09-03T00:38:10.940Z,75.32
2022-09-03T00:41:31.612Z,75.11
2022-09-03T00:49:10.044Z,75.68
2022-09-03T01:00:58.025Z,75.76
2022-09-03T01:17:22.125Z,75.98
2022-09-03T02:23:31.147Z,77.11
2022-09-03T02:26:04.715Z,76.82
2022-09-03T02:33:48.166Z,77.13
2022-09-03T02:40:42.682Z,77.31
2022-09-03T02:52:50.183Z,77.38
2022-09-03T02:55:51.844Z,77.22
2022-09-03T02:58:31.648Z,77.22
2022-09-03T03:05:59.248Z,77.37
2022-09-03T03:09:26.472Z,77.51
2022-09-03T03:11:58.744Z,77.37
2022-09-03T03:29:05.865Z,77.67
2022-09-03T03:36:13.774Z,77.82
2022-09-03T03:44:20.759Z,77.89
2022-09-03T03:47:01.899Z,77.96
2022-09-03T03:56:24.014Z,78.05
2022-09-03T03:59:00.294Z,78.24
2022-09-03T04:01:38.989Z,78.24
2022-09-03T04:04:11.597Z,78.23
2022-09-03T04:07:35.570Z,78.56
2022-09-03T04:28:50.501Z,78.98
2022-09-03T04:31:27.353Z,78.90
2022-09-03T04:34:06.610Z,79.03
2022-09-03T04:36:39.475Z,78.91
2022-09-03T04:39:13.762Z,79.09
2022-09-03T04:41:46.098Z,79.18
2022-09-03T04:44:41.353Z,79.21
2022-09-03T04:47:15.628Z,79.35
2022-09-03T04:55:45.416Z,79.89
2022-09-03T04:58:17.689Z,79.93
2022-09-03T05:00:50.241Z,80.17
2022-09-03T05:03:23.170Z,80.14
2022-09-03T05:05:59.477Z,80.32
2022-09-03T05:08:31.661Z,80.58
2022-09-03T05:11:04.102Z,80.75
2022-09-03T05:13:37.702Z,80.88
2022-09-03T05:16:13.295Z,81.30
2022-09-03T05:18:46.079Z,81.15
2022-09-03T05:21:19.916Z,81.30
2022-09-03T05:23:53.542Z,81.53
2022-09-03T05:26:30.322Z,81.78
2022-09-03T05:29:04.427Z,82.00
2022-09-03T05:31:39.107Z,82.23
2022-09-03T05:34:16.697Z,82.34
2022-09-03T05:36:51.157Z,82.77
2022-09-03T05:39:23.465Z,82.66
2022-09-03T05:41:55.858Z,83.01
2022-09-03T05:44:28.219Z,83.34
2022-09-03T05:47:00.511Z,83.65
2022-09-03T05:49:32.862Z,83.73
2022-09-03T05:52:05.342Z,83.79
2022-09-03T05:54:37.374Z,84.00
2022-09-03T05:57:09.619Z,83.41
2022-09-03T05:59:42.953Z,83.67
2022-09-03T06:02:15.427Z,83.62
2022-09-03T06:04:47.635Z,83.08
2022-09-03T06:07:21.103Z,83.45
2022-09-03T06:09:53.220Z,83.64
2022-09-03T06:12:25.380Z,82.71
2022-09-03T06:15:00.265Z,82.46
2022-09-03T06:17:34.877Z,82.70
2022-09-03T06:20:08.346Z,82.93
2022-09-03T06:22:40.919Z,82.64
2022-09-03T06:25:14.199Z,82.35
2022-09-03T06:27:52.340Z,81.89
2022-09-03T06:30:27.227Z,81.69
2022-09-03T06:32:59.542Z,81.78
2022-09-03T06:35:31.913Z,81.71
2022-09-03T06:38:13.981Z,81.57
2022-09-03T06:40:52.724Z,81.00
2022-09-03T06:43:26.560Z,80.98
2022-09-03T06:46:00.552Z,80.92
2022-09-03T06:48:34.440Z,80.22
2022-09-03T06:51:09.111Z,80.06
2022-09-03T06:53:44.253Z,79.99
2022-09-03T06:56:18.414Z,79.80
2022-09-03T06:58:50.763Z,79.94
2022-09-03T07:01:25.978Z,79.63
2022-09-03T07:04:01.387Z,79.17
2022-09-03T07:06:39.709Z,79.83
2022-09-03T07:09:13.363Z,79.54
2022-09-03T07:11:48.743Z,78.58
2022-09-03T07:14:24.829Z,78.47
2022-09-03T07:17:30.541Z,78.55
2022-09-03T07:24:05.396Z,77.80
2022-09-03T07:26:39.435Z,76.78
2022-09-03T07:29:13.260Z,77.03
2022-09-03T07:31:45.893Z,76.53
2022-09-03T07:34:18.345Z,76.15
2022-09-03T07:36:51.907Z,74.95
2022-09-03T07:39:24.325Z,74.27
2022-09-03T07:41:58.341Z,73.88
2022-09-03T07:44:31.214Z,74.65
2022-09-03T07:47:07.042Z,74.86
2022-09-03T07:49:39.079Z,74.03
2022-09-03T07:52:11.908Z,73.53
2022-09-03T07:54:45.028Z,72.37
2022-09-03T07:57:17.211Z,72.76
2022-09-03T07:59:49.374Z,70.46
2022-09-03T08:02:21.714Z,71.79
2022-09-03T08:04:53.824Z,71.41
2022-09-03T08:07:25.914Z,71.71
2022-09-03T08:09:59.601Z,71.00
2022-09-03T08:12:32.334Z,71.05
2022-09-03T08:15:05.340Z,68.07
2022-09-03T08:17:37.378Z,69.24
2022-09-03T08:20:11.127Z,69.58
2022-09-03T08:22:44.604Z,69.57
2022-09-03T08:25:17.096Z,69.57
2022-09-03T08:27:49.425Z,68.99
2022-09-03T08:30:22.203Z,67.33
2022-09-03T08:38:48.298Z,67.14
2022-09-03T08:46:35.912Z,67.36
2022-09-03T08:49:09.157Z,66.83
2022-09-03T08:51:42.069Z,65.98
2022-09-03T08:55:26.349Z,65.02
2022-09-03T09:02:28.497Z,64.39
2022-09-03T09:10:12.795Z,64.18
2022-09-03T09:13:18.822Z,63.91
2022-09-03T09:16:02.423Z,63.48
2022-09-03T09:18:47.645Z,63.94
2022-09-03T09:21:27.664Z,62.42
2022-09-03T09:24:04.181Z,62.85
2022-09-03T09:26:36.594Z,63.06
2022-09-03T09:29:11.909Z,61.55
2022-09-03T09:31:45.223Z,61.65
2022-09-03T09:34:17.853Z,62.21
2022-09-03T09:36:54.290Z,61.17
2022-09-03T09:39:27.152Z,59.99
2022-09-03T09:42:09.615Z,59.52
2022-09-03T09:44:43.803Z,60.99
2022-09-03T09:47:26.683Z,61.06
2022-09-03T09:50:00.955Z,60.64
2022-09-03T09:52:33.726Z,60.94
2022-09-03T09:55:19.283Z,60.80
2022-09-03T09:57:54.460Z,60.62
2022-09-03T10:00:27.173Z,59.94
2022-09-03T10:02:59.415Z,60.74
2022-09-03T10:05:43.404Z,60.27
2022-09-03T10:08:38.099Z,60.02
2022-09-03T10:11:10.418Z,60.14
2022-09-03T10:22:21.429Z,60.08
2022-09-03T10:25:04.783Z,59.15
2022-09-03T10:27:37.350Z,59.39
2022-09-03T10:30:20.123Z,59.39
2022-09-03T10:33:06.782Z,59.53
2022-09-03T10:35:47.462Z,59.60
2022-09-03T10:38:27.738Z,60.05
2022-09-03T10:41:16.221Z,60.21
2022-09-03T10:56:36.601Z,60.05
2022-09-03T10:59:29.261Z,59.79
2022-09-03T11:02:42.348Z,59.93
2022-09-03T11:05:22.983Z,60.01
2022-09-03T11:08:00.314Z,60.02
2022-09-03T11:10:34.565Z,59.91
2022-09-03T11:21:44.757Z,60.95
2022-09-03T11:33:16.160Z,61.25
2022-09-03T11:45:51.826Z,61.55
2022-09-03T12:24:45.092Z,62.75
2022-09-03T12:27:26.355Z,62.84
2022-09-03T12:40:04.584Z,62.02
2022-09-03T12:47:37.915Z,61.70
2022-09-03T13:00:02.693Z,62.67
2022-09-03T13:06:36.333Z,62.75
2022-09-03T13:18:24.946Z,63.46
2022-09-03T13:21:23.438Z,63.98
2022-09-03T13:28:27.819Z,63.54
2022-09-03T14:20:01.400Z,62.51
2022-09-03T14:27:07.677Z,62.33
2022-09-03T14:39:32.941Z,62.21
2022-09-03T14:43:57.428Z,62.22
2022-09-03T14:59:57.380Z,61.78
2022-09-03T15:03:03.987Z,61.69
2022-09-03T15:06:03.860Z,60.76
2022-09-03T15:08:56.547Z,60.53
2022-09-03T15:11:33.344Z,61.18
2022-09-03T15:14:11.845Z,61.00
2022-09-03T15:16:59.948Z,61.29
2022-09-03T15:19:58.796Z,61.44
2022-09-03T15:22:57.991Z,61.26
2022-09-03T15:25:42.840Z,61.32
2022-09-03T15:28:24.394Z,60.90
2022-09-03T15:31:02.985Z,61.20
2022-09-03T15:33:41.276Z,61.24
2022-09-03T15:36:21.509Z,61.17
2022-09-03T15:39:00.684Z,61.57
2022-09-03T15:41:41.583Z,61.99
2022-09-03T15:44:19.638Z,61.93
2022-09-03T15:46:57.971Z,62.30
2022-09-03T15:49:53.176Z,62.05
2022-09-03T15:52:33.691Z,62.00
2022-09-03T15:55:12.973Z,62.04
2022-09-03T15:57:54.633Z,62.07
2022-09-03T16:00:30.340Z,62.23
2022-09-03T16:03:21.706Z,62.34
2022-09-03T16:09:07.519Z,62.19
2022-09-03T16:16:12.896Z,62.76
2022-09-03T16:18:56.751Z,62.69
2022-09-03T16:21:36.953Z,62.73
2022-09-03T16:24:19.368Z,62.96
2022-09-03T16:26:57.450Z,63.27
2022-09-03T16:29:32.248Z,63.27
2022-09-03T16:32:19.559Z,63.55
2022-09-03T16:35:04.640Z,63.63
2022-09-03T16:37:47.628Z,63.77
2022-09-03T16:40:29.197Z,64.30
2022-09-03T16:43:29.956Z,64.40
2022-09-03T16:46:12.282Z,64.60
2022-09-03T16:48:55.123Z,64.76
2022-09-03T16:51:34.892Z,65.25
2022-09-03T17:07:15.955Z,65.87
2022-09-03T17:13:46.030Z,66.40
2022-09-03T17:16:30.315Z,66.85
2022-09-03T17:19:14.532Z,67.10
2022-09-03T17:21:55.014Z,67.42
2022-09-03T17:24:48.763Z,67.44
2022-09-03T17:27:46.481Z,67.79
2022-09-03T17:30:32.302Z,68.25
2022-09-03T17:33:34.708Z,68.42
2022-09-03T17:36:15.962Z,68.66
2022-09-03T17:39:23.219Z,68.79
2022-09-03T17:41:57.776Z,68.99
2022-09-03T17:44:47.888Z,69.18
2022-09-03T17:47:43.548Z,69.65
2022-09-03T17:50:24.279Z,69.91
2022-09-03T17:53:02.076Z,70.28
2022-09-03T17:55:37.563Z,70.34
2022-09-03T17:58:15.452Z,70.51
2022-09-03T18:00:59.376Z,70.98
2022-09-03T18:03:37.429Z,71.00
2022-09-03T18:06:19.964Z,71.06
2022-09-03T18:08:58.014Z,71.49
2022-09-03T18:11:36.821Z,71.68
2022-09-03T18:14:18.226Z,71.68
2022-09-03T18:16:56.135Z,71.83
2022-09-03T18:19:55.657Z,71.99
2022-09-03T18:22:50.008Z,72.10
2022-09-03T18:25:45.364Z,72.39
2022-09-03T18:28:38.415Z,72.62
2022-09-03T18:31:35.456Z,72.57
2022-09-03T18:34:27.013Z,72.77
2022-09-03T18:37:19.875Z,72.79
2022-09-03T18:40:09.970Z,72.83
2022-09-03T18:43:12.859Z,73.05
2022-09-03T18:47:00.365Z,73.51
2022-09-03T18:49:34.716Z,73.63
2022-09-03T18:52:35.518Z,73.89
2022-09-03T18:55:34.237Z,73.95
2022-09-03T18:58:34.116Z,74.07
2022-09-03T19:01:30.324Z,74.50
2022-09-03T19:04:32.577Z,74.57
2022-09-03T19:07:28.105Z,74.59
2022-09-03T19:10:27.899Z,74.84
2022-09-03T19:13:36.014Z,74.92
2022-09-03T19:16:29.632Z,74.96
2022-09-03T19:19:29.811Z,75.17
2022-09-03T19:22:28.208Z,75.39
2022-09-03T19:25:22.776Z,75.38
2022-09-03T19:28:25.981Z,75.49
2022-09-03T19:31:30.688Z,75.59
2022-09-03T19:34:28.286Z,75.72
2022-09-03T19:37:26.028Z,75.84
2022-09-03T19:40:30.172Z,75.71
2022-09-03T19:43:36.796Z,75.94
2022-09-03T19:46:38.056Z,76.13
2022-09-03T19:49:39.079Z,75.98
2022-09-03T19:52:37.533Z,76.19
2022-09-03T19:55:31.426Z,76.24
2022-09-03T19:58:42.025Z,76.36
2022-09-03T20:01:31.821Z,76.71
2022-09-03T20:04:30.727Z,76.85
2022-09-03T20:07:23.316Z,76.72
2022-09-03T20:10:15.384Z,76.91
2022-09-03T20:12:51.646Z,76.98
2022-09-03T20:15:31.191Z,77.19
2022-09-03T20:18:12.512Z,77.15
2022-09-03T20:20:53.690Z,76.98
2022-09-03T20:23:35.817Z,77.34
2022-09-03T20:26:33.291Z,77.30
2022-09-03T20:29:39.035Z,77.52
2022-09-03T20:32:19.525Z,77.71
2022-09-03T20:35:00.470Z,77.92
2022-09-03T20:37:42.066Z,77.88
2022-09-03T20:40:29.039Z,77.90
2022-09-03T20:43:18.395Z,78.04
2022-09-03T20:46:07.361Z,78.08
2022-09-03T20:48:51.261Z,78.22
2022-09-03T20:51:28.872Z,78.36
2022-09-03T20:54:20.655Z,78.33
2022-09-03T20:57:06.890Z,78.61
2022-09-03T20:59:57.518Z,78.74
2022-09-03T21:02:39.509Z,78.62
2022-09-03T21:05:19.170Z,78.88
2022-09-03T21:08:04.747Z,79.07
2022-09-03T21:10:44.324Z,79.12
2022-09-03T21:13:26.050Z,79.05
2022-09-03T21:16:03.579Z,79.06
2022-09-03T21:18:41.725Z,79.14
2022-09-03T21:21:24.768Z,79.29
2022-09-03T21:24:06.183Z,79.24
2022-09-03T21:26:46.122Z,79.42
2022-09-03T21:29:26.721Z,79.69
2022-09-03T21:32:05.160Z,79.49
2022-09-03T21:34:43.014Z,79.61
2022-09-03T21:37:17.825Z,79.38
2022-09-03T21:39:56.300Z,79.49
2022-09-03T21:42:36.590Z,79.58
2022-09-03T21:45:15.789Z,79.68
2022-09-03T21:47:58.290Z,79.71
2022-09-03T21:50:37.159Z,79.69
2022-09-03T21:53:16.405Z,79.82
2022-09-03T21:56:04.452Z,79.93
2022-09-03T21:58:53.603Z,79.89
2022-09-03T22:01:34.359Z,80.05
2022-09-03T22:04:09.598Z,79.94
2022-09-03T22:06:51.502Z,79.94
2022-09-03T22:09:32.892Z,80.11
2022-09-03T22:12:13.542Z,80.05
2022-09-03T22:14:49.883Z,80.10
2022-09-03T22:17:28.929Z,80.05
2022-09-03T22:20:01.054Z,79.77
2022-09-03T22:22:40.834Z,79.86
2022-09-03T22:25:17.218Z,80.16
2022-09-03T22:28:00.887Z,79.98
2022-09-03T22:30:39.988Z,80.10
2022-09-03T22:33:20.259Z,80.24
2022-09-03T22:36:08.577Z,80.22
2022-09-03T22:38:56.903Z,79.84
2022-09-03T22:41:55.253Z,80.17
2022-09-03T22:44:43.206Z,80.07
2022-09-03T22:47:28.347Z,79.99
2022-09-03T22:50:10.962Z,80.16
2022-09-03T22:52:46.624Z,80.21
2022-09-03T22:55:21.362Z,80.27
2022-09-03T22:58:03.971Z,80.03
2022-09-03T23:00:42.402Z,79.98
2022-09-03T23:03:20.695Z,80.20
2022-09-03T23:05:57.747Z,80.21
2022-09-03T23:08:34.670Z,80.20
2022-09-03T23:11:11.281Z,80.13
2022-09-03T23:13:48.690Z,80.25
2022-09-03T23:16:30.364Z,80.25
2022-09-03T23:21:55.638Z,80.41
2022-09-03T23:24:34.101Z,80.68
2022-09-03T23:27:12.605Z,80.67
2022-09-03T23:29:49.514Z,80.65
2022-09-03T23:32:22.411Z,80.92
2022-09-03T23:34:56.180Z,80.78
2022-09-03T23:37:47.157Z,81.03
2022-09-03T23:40:45.396Z,81.24
2022-09-03T23:43:50.844Z,81.12
2022-09-03T23:46:28.283Z,81.38
2022-09-03T23:49:31.492Z,81.34
2022-09-03T23:52:31.177Z,81.54
2022-09-03T23:55:09.405Z,81.42
2022-09-03T23:57:51.070Z,81.52
